Latest Weather Observations for High Range (Wanganderry)

IDN60801

Issued at 1:05 pm EDT Friday 19 December 2014 (issued every 30 minutes, with the page automatically refreshed every 10 minutes)

About weather observations | Map of weather stations | Latest weather observations for NSW | Other Formats
Station Details ID: 068262 Name: HIGH RANGE AWS (WANGANDERRY) Lat: -34.33 Lon: 150.27 Height: 813.6 m
Data from the previous 72 hours. | See also: Recent months for locations in New South Wales
Date/Time
EDT
Temp
°C
App
Temp
°C
Dew
Point
Rel
Hum
%
Delta-T
°C
Wind Press
QNH
hPa
Press
MSL
hPa
Rain
since 9 am
mm
Dir
 
Spd
km/h
Gust
km/h
Spd
kts
Gust
kts
19/01:00pm 21.1 17.7 5.9 37 7.9 WNW 13 20 7 11 1013.7 1010.4 0.0
19/12:30pm 20.1 16.4 4.6 36 7.8 NNW 13 20 7 11 1013.8 1010.5 0.0
19/12:00pm 19.8 16.3 5.5 39 7.3 W 13 22 7 12 1013.8 1010.5 0.0
19/11:30am 18.9 14.9 5.0 40 7.0 WNW 15 26 8 14 1013.8 1010.5 0.0
19/11:00am 18.1 15.1 7.8 51 5.5 W 13 22 7 12 1014.0 1010.7 0.0
19/10:30am 16.9 14.8 6.7 51 5.3 NW 7 15 4 8 1014.0 1010.7 0.0
19/10:00am 16.7 14.4 7.6 55 4.8 S 9 13 5 7 1014.0 1010.7 0.0
19/09:30am 15.9 14.9 8.9 63 3.7 E 4 9 2 5 1014.0 1010.7 0.0
19/09:00am 15.4 14.0 9.7 69 3.1 SE 7 11 4 6 1014.0 1010.7 0.0
19/08:30am 14.0 12.2 9.6 75 2.4 SE 9 13 5 7 1013.9 1010.6 0.0
19/08:00am 13.3 11.4 9.2 76 2.2 SE 9 15 5 8 1013.7 1010.4 0.0
19/07:30am 12.2 11.1 9.9 86 1.2 SSE 6 7 3 4 1013.4 1010.1 0.0
19/07:00am 12.1 10.7 11.0 93 0.6 SSE 9 13 5 7 1013.1 1009.7 0.0
19/06:30am 10.8 8.8 10.3 97 0.3 S 11 15 6 8 1012.6 1009.3 0.0
19/06:00am 10.4 7.9 9.8 96 0.3 SSW 13 15 7 8 1012.1 1008.7 0.0
19/05:30am 10.1 7.7 8.7 91 0.7 S 11 15 6 8 1011.8 1008.4 0.0
19/05:00am 11.4 6.8 3.9 60 3.5 SW 17 26 9 14 1011.2 1007.9 0.0
19/04:30am 13.8 8.1 3.0 48 5.0 W 22 28 12 15 1010.9 1007.5 0.0
19/04:00am 13.7 8.6 3.2 49 4.9 W 19 24 10 13 1010.9 1007.5 0.0
19/03:30am 13.9 9.5 2.8 47 5.2 W 15 19 8 10 1010.9 1007.5 0.0
19/03:00am 14.6 9.8 2.8 45 5.5 W 17 20 9 11 1010.8 1007.4 0.0
19/02:30am 15.3 10.5 2.8 43 5.9 WSW 17 20 9 11 1010.6 1007.2 0.0
19/02:00am 15.9 10.6 2.0 39 6.5 W 19 22 10 12 1010.2 1006.9 0.0
19/01:30am 15.8 11.5 0.8 36 6.8 W 13 20 7 11 1010.1 1006.8 0.0
19/01:00am 16.7 11.6 0.8 34 7.3 W 17 28 9 15 1010.0 1006.7 0.0
19/12:30am 17.3 11.8 0.9 33 7.5 W 19 26 10 14 1009.8 1006.4 0.0
19/12:00am 17.6 12.7 -0.2 30 8.0 WSW 15 20 8 11 1009.8 1006.4 0.0
 
Date/Time
EDT
Temp
°C
App
Temp
°C
Dew
Point
Rel
Hum
%
Delta-T
°C
Wind Press
QNH
hPa
Press
MSL
hPa
Rain
since 9 am
mm
Dir
 
Spd
km/h
Gust
km/h
Spd
kts
Gust
kts
18/11:30pm 18.6 13.4 -0.2 28 8.6 W 17 26 9 14 1009.6 1006.2 0.0
18/11:00pm 19.1 13.2 -0.8 26 9.0 WSW 20 32 11 17 1009.6 1006.2 0.0
18/10:30pm 19.8 13.1 -1.3 24 9.5 WSW 24 33 13 18 1009.8 1006.4 0.0
18/10:00pm 19.9 14.0 -0.7 25 9.4 WSW 20 28 11 15 1009.8 1006.4 0.0
18/09:30pm 20.5 14.5 -1.3 23 9.9 WSW 20 30 11 16 1009.7 1006.3 0.0
18/09:00pm 20.8 14.9 -0.5 24 9.8 WSW 20 28 11 15 1009.5 1006.1 0.0
18/08:30pm 21.3 15.6 -0.6 23 10.1 W 19 26 10 14 1009.3 1005.9 0.0
18/08:00pm 22.0 16.2 -0.1 23 10.4 W 20 30 11 16 1008.9 1005.6 0.0
18/07:30pm 22.9 16.9 1.3 24 10.5 WSW 22 32 12 17 1008.5 1005.1 0.0
18/07:00pm 23.8 15.9 0.8 22 11.1 W 32 43 17 23 1008.2 1004.8 0.0
18/06:30pm 24.4 17.4 1.9 23 11.1 WSW 28 43 15 23 1007.8 1004.4 0.0
18/06:00pm 24.6 22.5 11.2 43 7.8 WNW 13 20 7 11 1007.5 1004.1 0.0
18/05:30pm 24.4 23.6 11.7 45 7.5 NNW 7 20 4 11 1007.3 1003.9 0.0
18/05:00pm 23.1 21.4 15.7 63 4.6 N 19 22 10 12 1007.1 1003.7 0.0
18/04:30pm 23.0 22.2 16.1 65 4.3 N 15 20 8 11 1007.2 1003.8 0.0
18/04:00pm 23.0 21.9 16.3 66 4.2 NNE 17 24 9 13 1007.3 1003.9 0.0
18/03:30pm 22.7 21.1 16.0 66 4.2 NE 19 30 10 16 1007.5 1004.1 0.0
18/03:00pm 22.3 20.5 15.4 65 4.3 NE 19 22 10 12 1007.5 1004.1 0.0
18/02:30pm 22.7 21.7 16.7 69 3.8 NE 17 24 9 13 1007.9 1004.5 0.0
18/02:00pm 21.8 20.9 15.9 69 3.7 NE 15 20 8 11 1008.3 1004.9 0.0
18/01:30pm 21.8 21.1 16.3 71 3.4 NE 15 24 8 13 1008.6 1005.2 0.0
18/01:00pm 20.9 20.5 16.1 74 3.0 NE 13 20 7 11 1008.9 1005.6 0.0
18/12:30pm 19.8 18.5 15.7 77 2.5 NE 17 26 9 14 1009.3 1005.9 0.0
18/12:00pm 18.9 17.5 15.6 81 2.0 NE 17 24 9 13 1009.8 1006.4 0.0
18/11:30am 18.2 15.8 15.3 83 1.8 NE 22 30 12 16 1009.9 1006.5 0.0
18/11:00am 16.7 13.7 14.7 88 1.2 NNE 24 39 13 21 1010.6 1007.2 0.0
18/10:30am 15.2 12.2 13.6 90 0.9 NNE 22 32 12 17 1010.9 1007.5 0.0
18/10:02am 14.8 10.8 14.0 95 0.5 NNE 28 48 15 26 1011.0 1007.6 0.0
18/10:00am 14.8 11.2 14.2 96 0.4 NNE 26 41 14 22 1011.2 1007.9 0.0
18/09:30am 13.8 10.4 13.6 99 0.1 NNE 24 35 13 19 1011.4 1008.1 0.0
18/09:00am 13.2 10.3 13.0 99 0.1 NNE 20 30 11 16 1011.2 1007.9 0.0
18/08:30am 12.9 10.1 12.7 99 0.1 NNE 19 22 10 12 1011.4 1008.1 0.0
18/08:00am 12.7 9.7 12.5 99 0.1 NNE 20 32 11 17 1011.8 1008.4 0.0
18/07:30am 12.4 8.1 12.2 99 0.1 NNE 26 33 14 18 1011.6 1008.3 0.0
18/07:00am 12.2 8.3 12.0 99 0.1 NNE 24 30 13 16 1011.2 1007.9 0.0
18/06:30am 11.9 8.8 11.7 99 0.1 NNE 19 24 10 13 1010.8 1007.4 0.0
18/06:00am 11.8 8.5 11.6 99 0.1 NNE 20 24 11 13 1010.3 1007.0 0.0
18/05:30am 11.7 8.4 11.5 99 0.1 NNE 20 24 11 13 1010.1 1006.8 0.0
18/05:00am 11.5 8.3 11.3 99 0.1 NNE 19 22 10 12 1010.2 1006.9 0.0
18/04:30am 11.4 8.6 11.2 99 0.1 NNE 17 24 9 13 1010.0 1006.7 0.0
18/04:00am 11.2 7.3 10.9 98 0.2 NNE 22 32 12 17 1009.9 1006.5 0.0
18/03:30am 11.1 6.8 10.8 98 0.2 NNE 24 33 13 18 1010.0 1006.7 0.0
18/03:00am 10.9 6.6 10.6 98 0.2 NNE 24 30 13 16 1010.2 1006.9 0.0
18/02:30am 10.8 6.4 10.5 98 0.2 NNE 24 30 13 16 1010.5 1007.1 0.0
18/02:00am 10.8 6.4 10.5 98 0.2 NE 24 32 13 17 1010.7 1007.3 0.0
18/01:30am 10.8 6.8 10.5 98 0.2 NE 22 30 12 16 1011.0 1007.6 0.0
18/01:00am 10.7 5.9 10.4 98 0.2 NE 26 35 14 19 1011.3 1008.0 0.0
18/12:30am 10.9 6.9 10.6 98 0.2 NE 22 30 12 16 1011.6 1008.3 0.0
18/12:00am 11.0 7.4 10.7 98 0.2 NE 20 28 11 15 1011.8 1008.4 0.0
 
Date/Time
EDT
Temp
°C
App
Temp
°C
Dew
Point
Rel
Hum
%
Delta-T
°C
Wind Press
QNH
hPa
Press
MSL
hPa
Rain
since 9 am
mm
Dir
 
Spd
km/h
Gust
km/h
Spd
kts
Gust
kts
17/11:30pm 11.0 7.4 10.7 98 0.2 NE 20 28 11 15 1012.2 1008.9 0.0
17/11:00pm 11.0 7.0 10.5 97 0.3 NE 22 33 12 18 1012.3 1009.0 0.0
17/10:30pm 11.2 7.6 10.7 97 0.3 NE 20 28 11 15 1012.5 1009.2 0.0
17/10:00pm 11.2 7.2 10.4 95 0.4 NE 22 30 12 16 1012.4 1009.1 0.0
17/09:30pm 11.2 7.5 10.3 94 0.5 NE 20 28 11 15 1012.0 1008.6 0.0
17/09:00pm 11.5 7.8 10.1 91 0.7 NE 20 28 11 15 1012.0 1008.6 0.0
17/08:30pm 11.9 8.7 9.8 87 1.1 NE 17 24 9 13 1011.6 1008.3 0.0
17/08:00pm 12.1 8.8 9.5 84 1.4 ENE 17 22 9 12 1011.4 1008.1 0.0
17/07:30pm 12.5 8.8 9.5 82 1.6 ENE 19 24 10 13 1010.9 1007.5 0.0
17/07:00pm 13.0 9.7 9.6 80 1.8 ENE 17 22 9 12 1010.3 1007.0 0.0
17/06:30pm 13.4 10.1 9.6 78 2.0 ENE 17 24 9 13 1009.9 1006.5 0.0
17/06:00pm 13.8 10.2 9.8 77 2.2 ENE 19 26 10 14 1009.4 1006.0 0.0
17/05:30pm 15.7 12.8 11.1 74 2.6 ENE 17 24 9 13 1008.9 1005.6 0.0
17/05:00pm 15.4 12.6 11.2 76 2.3 NE 17 24 9 13 1008.9 1005.6 0.0
17/04:30pm 15.5 12.2 10.9 74 2.6 E 19 28 10 15 1008.9 1005.6 0.0
17/04:00pm 15.9 12.5 11.1 73 2.7 ENE 20 28 11 15 1008.8 1005.4 0.0
17/03:30pm 18.5 15.6 12.9 70 3.3 NE 20 28 11 15 1008.6 1005.2 0.0
17/03:00pm 18.5 16.0 13.4 72 3.0 ENE 19 24 10 13 1008.5 1005.1 0.0
17/02:30pm 17.8 14.7 12.3 70 3.2 ENE 20 30 11 16 1008.5 1005.1 0.0
17/02:00pm 17.1 12.3 11.6 70 3.1 ENE 28 41 15 22 1008.4 1005.0 0.0
17/01:30pm 18.4 14.9 12.2 67 3.6 ENE 22 30 12 16 1008.3 1004.9 0.0
17/01:00pm 20.2 16.7 13.4 65 4.0 ENE 24 35 13 19 1008.1 1004.7 0.0
17/12:30pm 19.9 16.0 13.4 66 3.9 NE 26 39 14 21 1008.1 1004.7 0.0
17/12:00pm 19.7 16.3 12.5 63 4.2 NE 22 28 12 15 1008.2 1004.8 0.0
17/11:30am 20.1 17.0 13.3 65 4.0 NE 22 30 12 16 1008.1 1004.7 0.0
17/11:00am 20.2 17.6 13.2 64 4.2 NNE 19 30 10 16 1008.0 1004.6 0.0
17/10:30am 20.6 17.7 6.5 40 7.4 NW 11 17 6 9 1007.9 1004.5 0.0
17/10:00am 19.7 17.8 7.4 45 6.6 NNW 7 15 4 8 1007.8 1004.4 0.0
17/09:30am 19.1 18.4 9.9 55 5.1 SSW 4 9 2 5 1007.6 1004.2 0.0
17/09:00am 17.1 16.0 10.0 63 3.9 SSW 6 9 3 5 1007.8 1004.4 0.0
17/08:30am 16.6 15.4 11.7 73 2.8 SE 9 13 5 7 1007.5 1004.1 0.0
17/08:00am 16.0 14.9 12.0 77 2.3 SSE 9 15 5 8 1007.2 1003.8 0.0
17/07:30am 15.1 13.9 11.5 79 2.0 SSW 9 13 5 7 1006.9 1003.5 0.0
17/07:00am 14.5 12.0 10.9 79 2.0 SW 15 20 8 11 1006.1 1002.7 0.0
17/06:30am 13.2 11.0 10.7 85 1.4 SSW 13 17 7 9 1005.6 1002.2 0.0
17/06:00am 12.9 8.9 9.2 78 2.0 SSW 20 24 11 13 1004.9 1001.5 0.0
17/05:30am 17.6 11.3 3.9 40 6.7 WSW 26 33 14 18 1004.4 1000.9 0.0
17/05:00am 18.5 13.2 3.2 36 7.5 W 20 24 11 13 1004.0 1000.5 0.0
17/04:30am 19.0 13.9 3.2 35 7.7 W 19 22 10 12 1003.7 1000.3 0.0
17/04:00am 19.7 14.4 3.0 33 8.2 W 20 28 11 15 1003.4 1000.0 0.0
17/03:30am 20.5 14.8 2.8 31 8.7 W 22 28 12 15 1003.4 1000.0 0.0
17/03:00am 20.6 16.0 1.5 28 9.2 WNW 15 19 8 10 1003.2 999.7 0.0
17/02:30am 21.7 17.2 1.9 27 9.6 WNW 15 19 8 10 1002.9 999.4 0.0
17/02:00am 21.4 16.8 1.7 27 9.6 WNW 15 19 8 10 1003.1 999.6 0.0
17/01:30am 20.9 17.1 1.7 28 9.2 W 11 15 6 8 1002.9 999.4 0.0
17/01:00am 22.0 18.4 0.5 24 10.2 NNW 9 11 5 6 1002.9 999.4 0.0
17/12:30am 22.6 17.0 1.0 24 10.4 WNW 20 35 11 19 1003.3 999.8 0.0
17/12:00am 24.2 19.0 -2.4 17 12.2 NW 15 20 8 11 1003.2 999.7 0.0
 
Date/Time
EDT
Temp
°C
App
Temp
°C
Dew
Point
Rel
Hum
%
Delta-T
°C
Wind Press
QNH
hPa
Press
MSL
hPa
Rain
since 9 am
mm
Dir
 
Spd
km/h
Gust
km/h
Spd
kts
Gust
kts
16/11:30pm 23.2 19.0 -4.0 16 11.9 NNW 9 13 5 7 1003.1 999.6 0.0
16/11:00pm 23.2 18.6 -4.0 16 12.0 NNW 11 13 6 7 1002.9 999.4 0.0
16/10:30pm 23.7 19.0 -5.3 14 12.5 NNW 11 17 6 9 1002.9 999.4 0.0
16/10:00pm 24.9 19.7 -6.4 12 13.4 NW 13 20 7 11 1002.9 999.4 0.0
16/09:30pm 24.3 19.4 -6.9 12 13.1 NW 11 15 6 8 1003.0 999.5 0.0
16/09:00pm 24.3 17.8 -5.8 13 13.0 W 20 30 11 16 1002.9 999.4 0.0
16/08:30pm 23.9 16.3 -5.2 14 12.6 WSW 26 33 14 18 1002.8 999.3 0.0
16/08:00pm 25.5 16.7 -6.0 12 13.7 WSW 32 44 17 24 1002.6 999.1 0.0
16/07:32pm 26.8 18.8 -6.1 11 14.3 WSW 28 50 15 27 1002.1 998.6 0.0
16/07:30pm 26.8 19.1 -6.1 11 14.3 WSW 26 39 14 21 1002.1 998.6 0.0
16/07:00pm 27.8 18.5 -5.3 11 14.8 W 35 56 19 30 1001.8 998.3 0.0
16/06:46pm 28.1 18.3 -6.3 10 15.1 WSW 37 56 20 30 1001.5 998.0 0.0
16/06:30pm 28.3 19.6 -4.9 11 15.0 W 32 50 17 27 1001.3 997.8 0.0
16/06:17pm 28.5 17.7 -3.6 12 14.8 W 44 67 24 36 1001.0 997.5 0.0
16/06:13pm 28.5 17.6 -6.0 10 15.3 W 43 67 23 36 1000.9 997.4 0.0
16/06:00pm 28.3 20.4 -1.7 14 14.4 W 30 54 16 29 1000.8 997.3 0.0
16/05:59pm 28.2 21.0 0.9 17 13.6 W 28 52 15 28 1000.8 997.3 0.0
16/05:30pm 27.1 23.3 11.2 37 9.4 WNW 22 43 12 23 1001.0 997.5 0.0
16/05:00pm 24.2 23.6 15.7 59 5.3 N 13 20 7 11 1001.2 997.6 0.0
16/04:30pm 24.2 22.8 16.5 62 4.9 N 19 28 10 15 1001.3 997.8 0.0
16/04:00pm 23.6 21.4 15.9 62 4.8 NNE 22 35 12 19 1001.4 997.9 0.0
16/03:30pm 21.6 18.4 14.3 63 4.4 NE 24 32 13 17 1001.5 998.0 0.0
16/03:00pm 23.5 20.5 15.8 62 4.8 NNE 26 37 14 20 1001.8 998.3 0.0
16/02:30pm 22.9 18.8 15.0 61 4.9 NNE 30 41 16 22 1002.2 998.7 0.0
16/02:00pm 22.2 18.2 15.3 65 4.3 NNE 30 39 16 21 1002.8 999.3 0.0
16/01:30pm 22.0 18.3 16.1 69 3.7 NE 30 43 16 23 1003.3 999.8 0.0

Other Formats:

Comma delimited format used in spreadsheet applications
http://www.bom.gov.au/fwo/IDN60801/IDN60801.99742.axf

JavaScript Object Notation format (JSON) in row-major order
http://www.bom.gov.au/fwo/IDN60801/IDN60801.99742.json